sensor_id;sensor_type;location;lat;lon;timestamp;pressure;altitude;pressure_sealevel;temperature
12918;BMP180;6526;54.312;13.092;2023-05-07T00:00:11;102818.00;;;11.10
12918;BMP180;6526;54.312;13.092;2023-05-07T00:02:37;102833.00;;;11.10
12918;BMP180;6526;54.312;13.092;2023-05-07T00:05:05;102824.00;;;11.10
12918;BMP180;6526;54.312;13.092;2023-05-07T00:07:32;102820.00;;;11.10
12918;BMP180;6526;54.312;13.092;2023-05-07T00:09:58;102818.00;;;11.10
12918;BMP180;6526;54.312;13.092;2023-05-07T00:12:24;102818.00;;;11.10
12918;BMP180;6526;54.312;13.092;2023-05-07T00:14:51;102817.00;;;11.10
12918;BMP180;6526;54.312;13.092;2023-05-07T00:17:17;102819.00;;;11.10
12918;BMP180;6526;54.312;13.092;2023-05-07T00:19:43;102811.00;;;11.20
12918;BMP180;6526;54.312;13.092;2023-05-07T00:22:09;102819.00;;;11.20
12918;BMP180;6526;54.312;13.092;2023-05-07T00:24:36;102810.00;;;11.10
12918;BMP180;6526;54.312;13.092;2023-05-07T00:27:02;102803.00;;;11.20
12918;BMP180;6526;54.312;13.092;2023-05-07T00:29:28;102806.00;;;11.10
12918;BMP180;6526;54.312;13.092;2023-05-07T00:31:54;102810.00;;;11.10
12918;BMP180;6526;54.312;13.092;2023-05-07T00:34:20;102801.00;;;11.10
12918;BMP180;6526;54.312;13.092;2023-05-07T00:36:46;102802.00;;;11.10
12918;BMP180;6526;54.312;13.092;2023-05-07T00:39:12;102803.00;;;11.00
12918;BMP180;6526;54.312;13.092;2023-05-07T00:41:38;102799.00;;;11.00
12918;BMP180;6526;54.312;13.092;2023-05-07T00:44:05;102803.00;;;11.00
12918;BMP180;6526;54.312;13.092;2023-05-07T00:46:31;102810.00;;;11.00
12918;BMP180;6526;54.312;13.092;2023-05-07T00:48:58;102813.00;;;11.00
12918;BMP180;6526;54.312;13.092;2023-05-07T00:51:25;102800.00;;;11.00
12918;BMP180;6526;54.312;13.092;2023-05-07T00:53:53;102807.00;;;11.20
12918;BMP180;6526;54.312;13.092;2023-05-07T00:56:20;102809.00;;;11.10
12918;BMP180;6526;54.312;13.092;2023-05-07T00:58:47;102806.00;;;11.10
12918;BMP180;6526;54.312;13.092;2023-05-07T01:01:13;102801.00;;;11.00
12918;BMP180;6526;54.312;13.092;2023-05-07T01:03:41;102817.00;;;11.00
12918;BMP180;6526;54.312;13.092;2023-05-07T01:06:08;102823.00;;;11.00
12918;BMP180;6526;54.312;13.092;2023-05-07T01:08:36;102818.00;;;11.10
12918;BMP180;6526;54.312;13.092;2023-05-07T01:11:02;102820.00;;;11.00
12918;BMP180;6526;54.312;13.092;2023-05-07T01:13:30;102816.00;;;11.00
12918;BMP180;6526;54.312;13.092;2023-05-07T01:15:56;102825.00;;;11.10
12918;BMP180;6526;54.312;13.092;2023-05-07T01:18:22;102813.00;;;11.00
12918;BMP180;6526;54.312;13.092;2023-05-07T01:20:48;102820.00;;;11.00
12918;BMP180;6526;54.312;13.092;2023-05-07T01:23:14;102814.00;;;11.00
12918;BMP180;6526;54.312;13.092;2023-05-07T01:25:41;102815.00;;;10.90
12918;BMP180;6526;54.312;13.092;2023-05-07T01:28:07;102810.00;;;10.90
12918;BMP180;6526;54.312;13.092;2023-05-07T01:30:33;102825.00;;;10.90
12918;BMP180;6526;54.312;13.092;2023-05-07T01:33:04;102805.00;;;11.00
12918;BMP180;6526;54.312;13.092;2023-05-07T01:35:36;102808.00;;;10.90
12918;BMP180;6526;54.312;13.092;2023-05-07T01:38:04;102810.00;;;10.90
12918;BMP180;6526;54.312;13.092;2023-05-07T01:40:32;102815.00;;;10.90
12918;BMP180;6526;54.312;13.092;2023-05-07T01:42:58;102804.00;;;11.00
12918;BMP180;6526;54.312;13.092;2023-05-07T01:45:25;102808.00;;;10.90
12918;BMP180;6526;54.312;13.092;2023-05-07T01:47:52;102829.00;;;11.00
12918;BMP180;6526;54.312;13.092;2023-05-07T01:50:19;102823.00;;;11.00
12918;BMP180;6526;54.312;13.092;2023-05-07T01:52:47;102815.00;;;11.10
12918;BMP180;6526;54.312;13.092;2023-05-07T01:55:13;102823.00;;;11.00
12918;BMP180;6526;54.312;13.092;2023-05-07T01:57:39;102811.00;;;11.00
12918;BMP180;6526;54.312;13.092;2023-05-07T02:00:08;102818.00;;;11.10
12918;BMP180;6526;54.312;13.092;2023-05-07T02:02:35;102819.00;;;11.10
12918;BMP180;6526;54.312;13.092;2023-05-07T02:05:01;102819.00;;;11.10
12918;BMP180;6526;54.312;13.092;2023-05-07T02:07:28;102817.00;;;11.10
12918;BMP180;6526;54.312;13.092;2023-05-07T02:09:54;102823.00;;;11.10
12918;BMP180;6526;54.312;13.092;2023-05-07T02:12:21;102827.00;;;11.10
12918;BMP180;6526;54.312;13.092;2023-05-07T02:14:47;102824.00;;;11.10
12918;BMP180;6526;54.312;13.092;2023-05-07T02:17:14;102822.00;;;11.10
12918;BMP180;6526;54.312;13.092;2023-05-07T02:19:40;102829.00;;;11.10
12918;BMP180;6526;54.312;13.092;2023-05-07T02:22:06;102822.00;;;11.10
12918;BMP180;6526;54.312;13.092;2023-05-07T02:24:32;102820.00;;;11.10
12918;BMP180;6526;54.312;13.092;2023-05-07T02:26:58;102830.00;;;11.00
12918;BMP180;6526;54.312;13.092;2023-05-07T02:29:24;102823.00;;;11.00
12918;BMP180;6526;54.312;13.092;2023-05-07T02:31:50;102830.00;;;11.00
12918;BMP180;6526;54.312;13.092;2023-05-07T02:34:18;102821.00;;;11.00
12918;BMP180;6526;54.312;13.092;2023-05-07T02:36:45;102816.00;;;11.10
12918;BMP180;6526;54.312;13.092;2023-05-07T02:39:12;102820.00;;;11.00
12918;BMP180;6526;54.312;13.092;2023-05-07T02:41:38;102829.00;;;11.00
12918;BMP180;6526;54.312;13.092;2023-05-07T02:44:04;102823.00;;;11.00
12918;BMP180;6526;54.312;13.092;2023-05-07T02:46:30;102815.00;;;11.10
12918;BMP180;6526;54.312;13.092;2023-05-07T02:48:56;102815.00;;;11.00
12918;BMP180;6526;54.312;13.092;2023-05-07T02:51:23;102810.00;;;11.00
12918;BMP180;6526;54.312;13.092;2023-05-07T02:53:49;102824.00;;;11.00
12918;BMP180;6526;54.312;13.092;2023-05-07T02:56:15;102809.00;;;11.00
12918;BMP180;6526;54.312;13.092;2023-05-07T02:58:41;102812.00;;;11.00
12918;BMP180;6526;54.312;13.092;2023-05-07T03:01:10;102825.00;;;11.00
12918;BMP180;6526;54.312;13.092;2023-05-07T03:03:37;102818.00;;;11.00
12918;BMP180;6526;54.312;13.092;2023-05-07T03:06:03;102820.00;;;11.10
12918;BMP180;6526;54.312;13.092;2023-05-07T03:08:29;102813.00;;;11.10
12918;BMP180;6526;54.312;13.092;2023-05-07T03:10:55;102816.00;;;11.00
12918;BMP180;6526;54.312;13.092;2023-05-07T03:13:21;102823.00;;;10.90
12918;BMP180;6526;54.312;13.092;2023-05-07T03:15:47;102819.00;;;11.00
12918;BMP180;6526;54.312;13.092;2023-05-07T03:18:13;102819.00;;;10.90
12918;BMP180;6526;54.312;13.092;2023-05-07T03:20:39;102820.00;;;10.90
12918;BMP180;6526;54.312;13.092;2023-05-07T03:23:05;102814.00;;;10.90
12918;BMP180;6526;54.312;13.092;2023-05-07T03:25:32;102829.00;;;10.90
12918;BMP180;6526;54.312;13.092;2023-05-07T03:27:58;102821.00;;;10.80
12918;BMP180;6526;54.312;13.092;2023-05-07T03:30:24;102821.00;;;10.80
12918;BMP180;6526;54.312;13.092;2023-05-07T03:32:50;102827.00;;;10.80
12918;BMP180;6526;54.312;13.092;2023-05-07T03:35:16;102821.00;;;10.80
12918;BMP180;6526;54.312;13.092;2023-05-07T03:37:43;102822.00;;;10.80
12918;BMP180;6526;54.312;13.092;2023-05-07T03:40:09;102823.00;;;10.70
12918;BMP180;6526;54.312;13.092;2023-05-07T03:42:36;102823.00;;;10.70
12918;BMP180;6526;54.312;13.092;2023-05-07T03:45:02;102833.00;;;10.70
12918;BMP180;6526;54.312;13.092;2023-05-07T03:47:28;102829.00;;;10.70
12918;BMP180;6526;54.312;13.092;2023-05-07T03:49:54;102825.00;;;10.70
12918;BMP180;6526;54.312;13.092;2023-05-07T03:52:21;102829.00;;;10.70
12918;BMP180;6526;54.312;13.092;2023-05-07T03:54:52;102838.00;;;10.80
12918;BMP180;6526;54.312;13.092;2023-05-07T03:57:18;102824.00;;;10.70
12918;BMP180;6526;54.312;13.092;2023-05-07T03:59:44;102835.00;;;10.70
12918;BMP180;6526;54.312;13.092;2023-05-07T04:02:10;102839.00;;;10.80
12918;BMP180;6526;54.312;13.092;2023-05-07T04:04:36;102836.00;;;10.70
12918;BMP180;6526;54.312;13.092;2023-05-07T04:07:02;102834.00;;;10.70
12918;BMP180;6526;54.312;13.092;2023-05-07T04:09:28;102841.00;;;10.70
12918;BMP180;6526;54.312;13.092;2023-05-07T04:11:55;102834.00;;;10.70
12918;BMP180;6526;54.312;13.092;2023-05-07T04:14:21;102836.00;;;10.70
12918;BMP180;6526;54.312;13.092;2023-05-07T04:16:47;102845.00;;;10.70
12918;BMP180;6526;54.312;13.092;2023-05-07T04:19:13;102850.00;;;10.70
12918;BMP180;6526;54.312;13.092;2023-05-07T04:21:39;102864.00;;;10.70
12918;BMP180;6526;54.312;13.092;2023-05-07T04:24:06;102856.00;;;10.70
12918;BMP180;6526;54.312;13.092;2023-05-07T04:26:32;102860.00;;;10.70
12918;BMP180;6526;54.312;13.092;2023-05-07T04:28:58;102860.00;;;10.80
12918;BMP180;6526;54.312;13.092;2023-05-07T04:31:25;102862.00;;;10.80
12918;BMP180;6526;54.312;13.092;2023-05-07T04:33:51;102861.00;;;10.90
12918;BMP180;6526;54.312;13.092;2023-05-07T04:36:17;102873.00;;;10.80
12918;BMP180;6526;54.312;13.092;2023-05-07T04:38:43;102874.00;;;10.80
12918;BMP180;6526;54.312;13.092;2023-05-07T04:41:12;102872.00;;;10.80
12918;BMP180;6526;54.312;13.092;2023-05-07T04:43:38;102872.00;;;10.90
12918;BMP180;6526;54.312;13.092;2023-05-07T04:46:04;102875.00;;;10.90
12918;BMP180;6526;54.312;13.092;2023-05-07T04:48:30;102879.00;;;11.00
12918;BMP180;6526;54.312;13.092;2023-05-07T04:50:56;102887.00;;;11.00
12918;BMP180;6526;54.312;13.092;2023-05-07T04:53:22;102878.00;;;11.10
12918;BMP180;6526;54.312;13.092;2023-05-07T04:55:48;102899.00;;;11.10
12918;BMP180;6526;54.312;13.092;2023-05-07T04:58:14;102901.00;;;11.20
12918;BMP180;6526;54.312;13.092;2023-05-07T05:00:41;102885.00;;;11.10
12918;BMP180;6526;54.312;13.092;2023-05-07T05:03:08;102890.00;;;11.20
12918;BMP180;6526;54.312;13.092;2023-05-07T05:05:34;102890.00;;;11.30
12918;BMP180;6526;54.312;13.092;2023-05-07T05:08:00;102883.00;;;11.30
12918;BMP180;6526;54.312;13.092;2023-05-07T05:10:26;102903.00;;;11.40
12918;BMP180;6526;54.312;13.092;2023-05-07T05:12:52;102900.00;;;11.50
12918;BMP180;6526;54.312;13.092;2023-05-07T05:15:18;102898.00;;;11.60
12918;BMP180;6526;54.312;13.092;2023-05-07T05:17:44;102901.00;;;11.70
12918;BMP180;6526;54.312;13.092;2023-05-07T05:20:10;102900.00;;;11.80
12918;BMP180;6526;54.312;13.092;2023-05-07T05:22:37;102912.00;;;12.00
12918;BMP180;6526;54.312;13.092;2023-05-07T05:25:03;102908.00;;;12.00
12918;BMP180;6526;54.312;13.092;2023-05-07T05:27:30;102913.00;;;12.20
12918;BMP180;6526;54.312;13.092;2023-05-07T05:29:56;102906.00;;;12.20
12918;BMP180;6526;54.312;13.092;2023-05-07T05:32:22;102905.00;;;12.30
12918;BMP180;6526;54.312;13.092;2023-05-07T05:34:48;102906.00;;;12.30
12918;BMP180;6526;54.312;13.092;2023-05-07T05:37:14;102905.00;;;12.50
12918;BMP180;6526;54.312;13.092;2023-05-07T05:39:40;102905.00;;;12.70
12918;BMP180;6526;54.312;13.092;2023-05-07T05:42:07;102904.00;;;12.80
12918;BMP180;6526;54.312;13.092;2023-05-07T05:44:33;102902.00;;;12.90
12918;BMP180;6526;54.312;13.092;2023-05-07T05:46:59;102898.00;;;12.90
12918;BMP180;6526;54.312;13.092;2023-05-07T05:49:25;102906.00;;;13.00
12918;BMP180;6526;54.312;13.092;2023-05-07T05:51:51;102903.00;;;13.10
12918;BMP180;6526;54.312;13.092;2023-05-07T05:54:17;102905.00;;;13.30
12918;BMP180;6526;54.312;13.092;2023-05-07T05:56:43;102919.00;;;13.20
12918;BMP180;6526;54.312;13.092;2023-05-07T05:59:10;102904.00;;;13.30
12918;BMP180;6526;54.312;13.092;2023-05-07T06:01:36;102896.00;;;13.30
12918;BMP180;6526;54.312;13.092;2023-05-07T06:04:02;102908.00;;;13.40
12918;BMP180;6526;54.312;13.092;2023-05-07T06:06:28;102910.00;;;13.60
12918;BMP180;6526;54.312;13.092;2023-05-07T06:08:54;102915.00;;;13.60
12918;BMP180;6526;54.312;13.092;2023-05-07T06:11:20;102909.00;;;13.60
12918;BMP180;6526;54.312;13.092;2023-05-07T06:13:47;102912.00;;;13.70
12918;BMP180;6526;54.312;13.092;2023-05-07T06:16:13;102927.00;;;13.60
12918;BMP180;6526;54.312;13.092;2023-05-07T06:18:39;102917.00;;;13.70
12918;BMP180;6526;54.312;13.092;2023-05-07T06:21:05;102904.00;;;13.80
12918;BMP180;6526;54.312;13.092;2023-05-07T06:23:31;102910.00;;;13.80
12918;BMP180;6526;54.312;13.092;2023-05-07T06:25:57;102913.00;;;13.80
12918;BMP180;6526;54.312;13.092;2023-05-07T06:28:23;102909.00;;;13.90
12918;BMP180;6526;54.312;13.092;2023-05-07T06:30:49;102919.00;;;13.90
12918;BMP180;6526;54.312;13.092;2023-05-07T06:33:16;102927.00;;;14.10
12918;BMP180;6526;54.312;13.092;2023-05-07T06:35:42;102924.00;;;14.20
12918;BMP180;6526;54.312;13.092;2023-05-07T06:38:08;102929.00;;;14.40
12918;BMP180;6526;54.312;13.092;2023-05-07T06:40:34;102929.00;;;14.70
12918;BMP180;6526;54.312;13.092;2023-05-07T06:43:00;102927.00;;;14.90
12918;BMP180;6526;54.312;13.092;2023-05-07T06:45:26;102930.00;;;15.10
12918;BMP180;6526;54.312;13.092;2023-05-07T06:47:52;102930.00;;;15.50
12918;BMP180;6526;54.312;13.092;2023-05-07T06:50:18;102928.00;;;15.60
12918;BMP180;6526;54.312;13.092;2023-05-07T06:52:44;102933.00;;;15.70
12918;BMP180;6526;54.312;13.092;2023-05-07T06:55:10;102942.00;;;15.40
12918;BMP180;6526;54.312;13.092;2023-05-07T06:57:37;102937.00;;;15.30
12918;BMP180;6526;54.312;13.092;2023-05-07T07:00:04;102933.00;;;15.20
12918;BMP180;6526;54.312;13.092;2023-05-07T07:02:32;102942.00;;;15.30
12918;BMP180;6526;54.312;13.092;2023-05-07T07:04:58;102929.00;;;15.20
12918;BMP180;6526;54.312;13.092;2023-05-07T07:07:24;102947.00;;;15.50
12918;BMP180;6526;54.312;13.092;2023-05-07T07:09:50;102948.00;;;15.70
12918;BMP180;6526;54.312;13.092;2023-05-07T07:12:17;102949.00;;;15.70
12918;BMP180;6526;54.312;13.092;2023-05-07T07:14:43;102946.00;;;15.70
12918;BMP180;6526;54.312;13.092;2023-05-07T07:17:09;102949.00;;;15.90
12918;BMP180;6526;54.312;13.092;2023-05-07T07:19:36;102950.00;;;16.10
12918;BMP180;6526;54.312;13.092;2023-05-07T07:22:02;102962.00;;;16.30
12918;BMP180;6526;54.312;13.092;2023-05-07T07:24:28;102961.00;;;16.40
12918;BMP180;6526;54.312;13.092;2023-05-07T07:26:54;102964.00;;;16.60
12918;BMP180;6526;54.312;13.092;2023-05-07T07:29:21;102953.00;;;16.60
12918;BMP180;6526;54.312;13.092;2023-05-07T07:31:48;102955.00;;;16.50
12918;BMP180;6526;54.312;13.092;2023-05-07T07:34:15;102947.00;;;16.60
12918;BMP180;6526;54.312;13.092;2023-05-07T07:36:41;102965.00;;;16.80
12918;BMP180;6526;54.312;13.092;2023-05-07T07:39:07;102955.00;;;17.00
12918;BMP180;6526;54.312;13.092;2023-05-07T07:41:33;102953.00;;;17.00
12918;BMP180;6526;54.312;13.092;2023-05-07T07:43:59;102949.00;;;17.10
12918;BMP180;6526;54.312;13.092;2023-05-07T07:46:25;102945.00;;;17.10
12918;BMP180;6526;54.312;13.092;2023-05-07T07:48:52;102960.00;;;17.30
12918;BMP180;6526;54.312;13.092;2023-05-07T07:51:18;102951.00;;;17.40
12918;BMP180;6526;54.312;13.092;2023-05-07T07:53:44;102958.00;;;17.40
12918;BMP180;6526;54.312;13.092;2023-05-07T07:56:10;102957.00;;;17.50
12918;BMP180;6526;54.312;13.092;2023-05-07T07:58:36;102958.00;;;17.80
12918;BMP180;6526;54.312;13.092;2023-05-07T08:01:03;102954.00;;;17.80
12918;BMP180;6526;54.312;13.092;2023-05-07T08:03:29;102955.00;;;17.70
12918;BMP180;6526;54.312;13.092;2023-05-07T08:05:58;102959.00;;;17.70
12918;BMP180;6526;54.312;13.092;2023-05-07T08:08:24;102958.00;;;17.50
12918;BMP180;6526;54.312;13.092;2023-05-07T08:10:50;102960.00;;;17.70
12918;BMP180;6526;54.312;13.092;2023-05-07T08:13:17;102962.00;;;17.30
12918;BMP180;6526;54.312;13.092;2023-05-07T08:15:43;102964.00;;;17.20
12918;BMP180;6526;54.312;13.092;2023-05-07T08:18:09;102971.00;;;17.30
12918;BMP180;6526;54.312;13.092;2023-05-07T08:20:35;102965.00;;;17.50
12918;BMP180;6526;54.312;13.092;2023-05-07T08:23:05;102963.00;;;17.60
12918;BMP180;6526;54.312;13.092;2023-05-07T08:25:34;102973.00;;;17.80
12918;BMP180;6526;54.312;13.092;2023-05-07T08:28:00;102964.00;;;18.00
12918;BMP180;6526;54.312;13.092;2023-05-07T08:30:26;102954.00;;;18.10
12918;BMP180;6526;54.312;13.092;2023-05-07T08:32:52;102964.00;;;18.40
12918;BMP180;6526;54.312;13.092;2023-05-07T08:35:18;102972.00;;;18.40
12918;BMP180;6526;54.312;13.092;2023-05-07T08:37:44;102971.00;;;18.50
12918;BMP180;6526;54.312;13.092;2023-05-07T08:40:11;102964.00;;;18.20
12918;BMP180;6526;54.312;13.092;2023-05-07T08:42:37;102970.00;;;18.10
12918;BMP180;6526;54.312;13.092;2023-05-07T08:45:05;102963.00;;;18.10
12918;BMP180;6526;54.312;13.092;2023-05-07T08:47:44;102958.00;;;18.20
12918;BMP180;6526;54.312;13.092;2023-05-07T08:50:12;102965.00;;;18.10
12918;BMP180;6526;54.312;13.092;2023-05-07T08:52:40;102966.00;;;18.20
12918;BMP180;6526;54.312;13.092;2023-05-07T08:55:07;102970.00;;;18.20
12918;BMP180;6526;54.312;13.092;2023-05-07T08:57:33;102974.00;;;17.80
12918;BMP180;6526;54.312;13.092;2023-05-07T08:59:59;102970.00;;;17.90
12918;BMP180;6526;54.312;13.092;2023-05-07T09:02:25;102967.00;;;18.00
12918;BMP180;6526;54.312;13.092;2023-05-07T09:04:52;102966.00;;;18.00
12918;BMP180;6526;54.312;13.092;2023-05-07T09:07:19;102976.00;;;18.00
12918;BMP180;6526;54.312;13.092;2023-05-07T09:09:45;102967.00;;;18.00
12918;BMP180;6526;54.312;13.092;2023-05-07T09:12:12;102970.00;;;17.90
12918;BMP180;6526;54.312;13.092;2023-05-07T09:14:38;102971.00;;;17.80
12918;BMP180;6526;54.312;13.092;2023-05-07T09:17:05;102972.00;;;17.60
12918;BMP180;6526;54.312;13.092;2023-05-07T09:19:31;102978.00;;;17.70
12918;BMP180;6526;54.312;13.092;2023-05-07T09:22:05;102977.00;;;17.80
12918;BMP180;6526;54.312;13.092;2023-05-07T09:24:33;102972.00;;;18.10
12918;BMP180;6526;54.312;13.092;2023-05-07T09:27:04;102967.00;;;18.40
12918;BMP180;6526;54.312;13.092;2023-05-07T09:29:31;102976.00;;;18.40
12918;BMP180;6526;54.312;13.092;2023-05-07T09:32:08;102972.00;;;18.40
12918;BMP180;6526;54.312;13.092;2023-05-07T09:34:34;102971.00;;;18.20
12918;BMP180;6526;54.312;13.092;2023-05-07T09:37:02;102965.00;;;18.20
12918;BMP180;6526;54.312;13.092;2023-05-07T09:39:46;102962.00;;;18.20
12918;BMP180;6526;54.312;13.092;2023-05-07T09:42:12;102972.00;;;18.40
12918;BMP180;6526;54.312;13.092;2023-05-07T09:44:41;102973.00;;;18.60
12918;BMP180;6526;54.312;13.092;2023-05-07T09:47:09;102967.00;;;18.70
12918;BMP180;6526;54.312;13.092;2023-05-07T09:49:37;102975.00;;;18.60
12918;BMP180;6526;54.312;13.092;2023-05-07T09:52:06;102969.00;;;18.40
12918;BMP180;6526;54.312;13.092;2023-05-07T09:54:35;102962.00;;;18.30
12918;BMP180;6526;54.312;13.092;2023-05-07T09:57:04;102973.00;;;18.30
12918;BMP180;6526;54.312;13.092;2023-05-07T09:59:32;102975.00;;;18.40
12918;BMP180;6526;54.312;13.092;2023-05-07T10:02:00;102962.00;;;18.30
12918;BMP180;6526;54.312;13.092;2023-05-07T10:04:27;102960.00;;;18.20
12918;BMP180;6526;54.312;13.092;2023-05-07T10:06:54;102969.00;;;18.40
12918;BMP180;6526;54.312;13.092;2023-05-07T10:09:21;102965.00;;;18.50
12918;BMP180;6526;54.312;13.092;2023-05-07T10:11:49;102977.00;;;18.90
12918;BMP180;6526;54.312;13.092;2023-05-07T10:14:16;102968.00;;;19.00
12918;BMP180;6526;54.312;13.092;2023-05-07T10:16:43;102975.00;;;18.90
12918;BMP180;6526;54.312;13.092;2023-05-07T10:19:09;102981.00;;;19.00
12918;BMP180;6526;54.312;13.092;2023-05-07T10:21:44;102967.00;;;18.80
12918;BMP180;6526;54.312;13.092;2023-05-07T10:24:21;102976.00;;;18.50
12918;BMP180;6526;54.312;13.092;2023-05-07T10:26:50;102963.00;;;18.50
12918;BMP180;6526;54.312;13.092;2023-05-07T10:35:02;102977.00;;;18.60
12918;BMP180;6526;54.312;13.092;2023-05-07T10:37:29;102983.00;;;18.70
12918;BMP180;6526;54.312;13.092;2023-05-07T10:39:56;102980.00;;;18.50
12918;BMP180;6526;54.312;13.092;2023-05-07T10:42:23;102987.00;;;18.30
12918;BMP180;6526;54.312;13.092;2023-05-07T10:44:49;102973.00;;;18.50
12918;BMP180;6526;54.312;13.092;2023-05-07T10:47:16;102972.00;;;18.40
12918;BMP180;6526;54.312;13.092;2023-05-07T10:52:21;102977.00;;;18.10
12918;BMP180;6526;54.312;13.092;2023-05-07T10:57:43;102972.00;;;18.40
12918;BMP180;6526;54.312;13.092;2023-05-07T11:05:30;102976.00;;;18.40
12918;BMP180;6526;54.312;13.092;2023-05-07T11:07:58;102982.00;;;18.30
12918;BMP180;6526;54.312;13.092;2023-05-07T11:10:54;102971.00;;;18.20
12918;BMP180;6526;54.312;13.092;2023-05-07T11:13:48;102979.00;;;18.30
12918;BMP180;6526;54.312;13.092;2023-05-07T11:16:22;102976.00;;;18.30
12918;BMP180;6526;54.312;13.092;2023-05-07T11:18:53;102966.00;;;18.30
12918;BMP180;6526;54.312;13.092;2023-05-07T11:21:39;102975.00;;;18.40
12918;BMP180;6526;54.312;13.092;2023-05-07T11:24:06;102970.00;;;18.40
12918;BMP180;6526;54.312;13.092;2023-05-07T11:26:47;102973.00;;;18.30
12918;BMP180;6526;54.312;13.092;2023-05-07T11:29:19;102975.00;;;18.30
12918;BMP180;6526;54.312;13.092;2023-05-07T11:31:49;102970.00;;;18.20
12918;BMP180;6526;54.312;13.092;2023-05-07T11:34:24;102972.00;;;18.20
12918;BMP180;6526;54.312;13.092;2023-05-07T11:36:51;102968.00;;;18.30
12918;BMP180;6526;54.312;13.092;2023-05-07T11:39:33;102963.00;;;18.30
12918;BMP180;6526;54.312;13.092;2023-05-07T11:42:03;102977.00;;;18.50
12918;BMP180;6526;54.312;13.092;2023-05-07T11:44:45;102968.00;;;18.50
12918;BMP180;6526;54.312;13.092;2023-05-07T11:47:17;102967.00;;;18.30
12918;BMP180;6526;54.312;13.092;2023-05-07T11:49:45;102970.00;;;18.30
12918;BMP180;6526;54.312;13.092;2023-05-07T11:52:13;102963.00;;;18.20
12918;BMP180;6526;54.312;13.092;2023-05-07T11:54:39;102983.00;;;18.30
12918;BMP180;6526;54.312;13.092;2023-05-07T11:57:05;102971.00;;;18.20
12918;BMP180;6526;54.312;13.092;2023-05-07T11:59:39;102980.00;;;18.30
12918;BMP180;6526;54.312;13.092;2023-05-07T12:02:07;102980.00;;;18.30
12918;BMP180;6526;54.312;13.092;2023-05-07T12:04:33;102980.00;;;18.20
12918;BMP180;6526;54.312;13.092;2023-05-07T12:06:59;102985.00;;;18.30
12918;BMP180;6526;54.312;13.092;2023-05-07T12:09:26;102975.00;;;18.40
12918;BMP180;6526;54.312;13.092;2023-05-07T12:11:52;102962.00;;;18.40
12918;BMP180;6526;54.312;13.092;2023-05-07T12:14:18;102967.00;;;18.50
12918;BMP180;6526;54.312;13.092;2023-05-07T12:16:45;102976.00;;;18.40
12918;BMP180;6526;54.312;13.092;2023-05-07T12:19:11;102968.00;;;18.40
12918;BMP180;6526;54.312;13.092;2023-05-07T12:21:41;102966.00;;;18.40
12918;BMP180;6526;54.312;13.092;2023-05-07T12:24:08;102966.00;;;18.40
12918;BMP180;6526;54.312;13.092;2023-05-07T12:26:38;102975.00;;;18.30
12918;BMP180;6526;54.312;13.092;2023-05-07T12:29:06;102929.00;;;18.20
12918;BMP180;6526;54.312;13.092;2023-05-07T12:31:33;102964.00;;;18.20
12918;BMP180;6526;54.312;13.092;2023-05-07T12:33:59;102975.00;;;18.50
12918;BMP180;6526;54.312;13.092;2023-05-07T12:36:25;102971.00;;;18.40
12918;BMP180;6526;54.312;13.092;2023-05-07T12:38:51;102977.00;;;18.30
12918;BMP180;6526;54.312;13.092;2023-05-07T12:41:17;102984.00;;;18.30
12918;BMP180;6526;54.312;13.092;2023-05-07T12:43:47;102986.00;;;18.50
12918;BMP180;6526;54.312;13.092;2023-05-07T12:46:13;102988.00;;;18.50
12918;BMP180;6526;54.312;13.092;2023-05-07T12:48:45;102983.00;;;18.40
12918;BMP180;6526;54.312;13.092;2023-05-07T12:51:14;102979.00;;;18.50
12918;BMP180;6526;54.312;13.092;2023-05-07T12:53:42;102984.00;;;18.60
12918;BMP180;6526;54.312;13.092;2023-05-07T12:56:08;102992.00;;;18.50
12918;BMP180;6526;54.312;13.092;2023-05-07T12:58:35;102995.00;;;18.50
12918;BMP180;6526;54.312;13.092;2023-05-07T13:01:06;102983.00;;;18.40
12918;BMP180;6526;54.312;13.092;2023-05-07T13:03:34;102990.00;;;18.20
12918;BMP180;6526;54.312;13.092;2023-05-07T13:06:10;102981.00;;;18.20
12918;BMP180;6526;54.312;13.092;2023-05-07T13:08:39;102976.00;;;18.40
12918;BMP180;6526;54.312;13.092;2023-05-07T13:11:12;102983.00;;;18.30
12918;BMP180;6526;54.312;13.092;2023-05-07T13:13:39;102984.00;;;18.20
12918;BMP180;6526;54.312;13.092;2023-05-07T13:16:07;102972.00;;;18.30
12918;BMP180;6526;54.312;13.092;2023-05-07T13:18:34;102967.00;;;18.40
12918;BMP180;6526;54.312;13.092;2023-05-07T13:21:00;102971.00;;;18.30
12918;BMP180;6526;54.312;13.092;2023-05-07T13:23:27;102990.00;;;18.30
12918;BMP180;6526;54.312;13.092;2023-05-07T13:25:54;102972.00;;;18.30
12918;BMP180;6526;54.312;13.092;2023-05-07T13:28:20;102980.00;;;18.20
12918;BMP180;6526;54.312;13.092;2023-05-07T13:30:47;102965.00;;;18.30
12918;BMP180;6526;54.312;13.092;2023-05-07T13:33:13;102970.00;;;18.30
12918;BMP180;6526;54.312;13.092;2023-05-07T13:35:39;102969.00;;;18.30
12918;BMP180;6526;54.312;13.092;2023-05-07T13:38:05;102976.00;;;18.30
12918;BMP180;6526;54.312;13.092;2023-05-07T13:40:32;102972.00;;;18.20
12918;BMP180;6526;54.312;13.092;2023-05-07T13:42:58;102972.00;;;18.20
12918;BMP180;6526;54.312;13.092;2023-05-07T13:45:25;102987.00;;;18.20
12918;BMP180;6526;54.312;13.092;2023-05-07T13:47:52;102965.00;;;18.20
12918;BMP180;6526;54.312;13.092;2023-05-07T13:50:18;102966.00;;;18.10
12918;BMP180;6526;54.312;13.092;2023-05-07T13:52:45;102972.00;;;18.00
12918;BMP180;6526;54.312;13.092;2023-05-07T13:55:18;102960.00;;;18.00
12918;BMP180;6526;54.312;13.092;2023-05-07T13:57:44;102966.00;;;18.00
12918;BMP180;6526;54.312;13.092;2023-05-07T14:00:11;102964.00;;;17.90
12918;BMP180;6526;54.312;13.092;2023-05-07T14:02:37;102963.00;;;17.90
12918;BMP180;6526;54.312;13.092;2023-05-07T14:05:03;102968.00;;;17.90
12918;BMP180;6526;54.312;13.092;2023-05-07T14:07:30;102963.00;;;17.90
12918;BMP180;6526;54.312;13.092;2023-05-07T14:09:57;102984.00;;;17.90
12918;BMP180;6526;54.312;13.092;2023-05-07T14:12:23;102958.00;;;17.80